Flight Track Log - Related Links

Times and Time Zones

All times are in EDT time to prevent confusion due to time zone crossing. See the AAL2224 flight status page for this flight to view local times or setup timezone preferences in your user account.

Time Position Orientation Groundspeed Altitude Reporting Facility
EDT Latitude Longitude Course Direction KTS MPH feet Rate Location/Type
Wed 10:54:13 AM 41.9681 -87.9575 270° West 185 213 1,500  Level Chicago Center
Wed 10:55:15 AM 41.9669 -88.0411 269° West 225 259 3,700 2,177 Climbing Chicago Center
Wed 10:56:17 AM 41.9717 -88.1400 274° West 256 295 6,000 2,371 Climbing Chicago Center
Wed 10:57:19 AM 41.9953 -88.2339 289° West 265 305 8,600 2,496 Climbing Chicago Center
Wed 10:58:22 AM 42.0267 -88.3328 293° West 266 306 11,200 1,795 Climbing Chicago Center
Wed 10:59:00 AM 42.1500 -88.7723 270° West  Level FlightAware Approximate
Wed 10:59:26 AM 42.0578 -88.4458 290° West 303 349 12,400  Level Chicago Center
Wed 11:00:28 AM 42.0900 -88.5472 293° West 320 368 14,100 1,839 Climbing Chicago Center
Wed 11:01:30 AM 42.1242 -88.6725 290° West 350 403 16,200 2,081 Climbing Chicago Center
Wed 11:02:32 AM 42.1631 -88.8258 289° West 359 413 18,400 1,839 Climbing Chicago Center
Wed 11:03:34 AM 42.1594 -88.9608 268° West 386 444 20,000 1,548 Climbing Chicago Center
Wed 11:04:36 AM 42.1550 -89.1067 268° West 386 444 21,600 1,500 Climbing Chicago Center
Wed 11:05:38 AM 42.1517 -89.2567 268° West 399 459 23,100 1,452 Climbing Chicago Center
Wed 11:06:40 AM 42.1458 -89.4386 268° West 403 464 24,600 1,306 Climbing Chicago Center
Wed 11:07:42 AM 42.1419 -89.5931 268° West 410 472 25,800 1,008 Climbing Chicago Center
Wed 11:08:45 AM 42.1381 -89.7539 268° West 423 487 26,700 960 Climbing Chicago Center
Wed 11:09:47 AM 42.1328 -89.9278 268° West 427 491 27,800 1,161 Climbing Chicago Center
Wed 11:10:49 AM 42.1269 -90.0883 267° West 433 498 29,100 1,065 Climbing Chicago Center
Wed 11:11:51 AM 42.1206 -90.2469 267° West 431 496 30,000 435 Climbing Chicago Center
Wed 11:12:53 AM 42.1153 -90.4042 267° West 425 489 30,000 290 Level Chicago Center
Wed 11:13:55 AM 42.1092 -90.5622 267° West 425 489 30,600 532 Climbing Chicago Center
Wed 11:14:57 AM 42.1017 -90.7503 267° West 424 488 31,100 484 Climbing Chicago Center
Wed 11:15:59 AM 42.0961 -90.9053 267° West 422 486 31,600 432 Climbing Chicago Center
Wed 11:17:02 AM 42.1033 -91.0622 274° West 421 484 32,000 192 Climbing Chicago Center
Wed 11:18:04 AM 42.1292 -91.2100 283° West 411 473 32,000  Level Chicago Center
Wed 11:19:06 AM 42.1544 -91.3603 283° West 411 473 32,000  Level Chicago Center
Wed 11:20:08 AM 42.1839 -91.5394 283° West 411 473 32,000  Level Chicago Center
Wed 11:21:10 AM 42.2089 -91.6911 283° West 411 473 32,000  Level Chicago Center
Wed 11:22:12 AM 42.2339 -91.8411 283° West 411 473 32,000  Level Chicago Center
Wed 11:23:14 AM 42.2594 -91.9911 283° West 412 474 32,000  Level Chicago Center
Wed 11:24:16 AM 42.2844 -92.1431 283° West 413 475 32,000  Level Chicago Center
Wed 11:25:18 AM 42.3092 -92.2939 283° West 413 475 32,000  Level Chicago Center
Wed 11:26:20 AM 42.3364 -92.4717 282° West 410 472 32,000  Level Chicago Center
Wed 11:27:23 AM 42.3606 -92.6228 282° West 410 472 32,000  Level Chicago Center
Wed 11:28:25 AM 42.3836 -92.7722 282° West 410 472 32,000  Level Chicago Center
Wed 11:29:27 AM 42.4058 -92.9200 282° West 407 468 32,000  Level Chicago Center
Wed 11:30:29 AM 42.4292 -93.0672 282° West 406 467 32,000  Level Chicago Center
Wed 11:31:31 AM 42.4561 -93.2431 282° West 403 464 32,000  Level Chicago Center
Wed 11:32:33 AM 42.4789 -93.3892 282° West 402 463 32,000  Level Chicago Center
Wed 11:33:35 AM 42.5008 -93.5361 281° West 402 463 32,000  Level Chicago Center
Wed 11:34:37 AM 42.5211 -93.6811 281° West 399 459 32,000  Level Chicago Center
Wed 11:35:39 AM 42.5433 -93.8289 282° West 399 459 32,000  Level Chicago Center
Wed 11:36:42 AM 42.5683 -94.0019 281° West 395 455 32,000  Level Chicago Center
Wed 11:37:58 AM 42.5939 -94.1794 281° West 397 457 32,000  Level Minneapolis Center
Wed 11:39:01 AM 42.6128 -94.3269 280° West 399 459 32,000  Level Minneapolis Center
Wed 11:40:03 AM 42.6086 -94.4792 268° West 403 464 32,000  Level Minneapolis Center
Wed 11:41:05 AM 42.6053 -94.6494 269° West 404 465 32,000  Level Minneapolis Center
Wed 11:42:07 AM 42.6033 -94.8008 269° West 404 465 32,000  Level Minneapolis Center
Wed 11:43:09 AM 42.6003 -94.9531 268° West 404 465 32,000  Level Minneapolis Center
Wed 11:44:11 AM 42.5969 -95.1400 269° West 411 473 32,000  Level Minneapolis Center
Wed 11:45:13 AM 42.5928 -95.2917 268° West 410 472 32,000  Level Minneapolis Center
Wed 11:46:15 AM 42.5903 -95.4431 269° West 406 467 32,000  Level Minneapolis Center
Wed 11:47:17 AM 42.5856 -95.5936 268° West 403 464 32,000  Level Minneapolis Center
Wed 11:48:20 AM 42.5825 -95.7422 268° West 401 461 32,000  Level Minneapolis Center
Wed 11:49:22 AM 42.5794 -95.8914 268° West 398 458 32,000  Level Minneapolis Center
Wed 11:50:24 AM 42.5747 -96.0661 268° West 393 452 32,000  Level Minneapolis Center
Wed 11:51:26 AM 42.5692 -96.2111 267° West 388 447 32,000  Level Minneapolis Center
Wed 11:52:28 AM 42.5650 -96.3589 268° West 389 448 32,000  Level Minneapolis Center
Wed 11:53:30 AM 42.5606 -96.5039 268° West 389 448 32,000  Level Minneapolis Center
Wed 11:54:32 AM 42.5553 -96.6478 267° West 388 447 32,000  Level Minneapolis Center
Wed 11:55:34 AM 42.5489 -96.8247 267° West 389 448 32,000  Level Minneapolis Center
Wed 11:56:36 AM 42.5433 -96.9714 267° West 389 448 32,000  Level Minneapolis Center
Wed 11:57:38 AM 42.5400 -97.1167 268° West 389 448 32,000  Level Minneapolis Center
Wed 11:58:41 AM 42.5353 -97.2633 268° West 389 448 32,000  Level Minneapolis Center
Wed 11:59:45 AM 42.5300 -97.4097 267° West 389 448 32,000  Level Minneapolis Center
Wed 12:00:47 PM 42.5233 -97.5869 267° West 390 449 32,000  Level Minneapolis Center
Wed 12:01:49 PM 42.5167 -97.7344 267° West 391 450 32,000  Level Minneapolis Center
Wed 12:02:51 PM 42.5103 -97.8975 267° West 392 451 32,000  Level Minneapolis Center
Wed 12:03:53 PM 42.5025 -98.0478 266° West 395 455 32,000  Level Minneapolis Center
Wed 12:04:55 PM 42.4956 -98.1956 266° West 395 455 32,000  Level Minneapolis Center
Wed 12:05:57 PM 42.4883 -98.3444 266° West 396 456 32,000  Level Minneapolis Center
Wed 12:06:59 PM 42.4808 -98.4942 266° West 396 456 32,000  Level Minneapolis Center
Wed 12:08:01 PM 42.4739 -98.6444 266° West 398 458 32,000  Level Minneapolis Center
Wed 12:09:04 PM 42.4572 -98.8242 263° West 401 461 32,000  Level Minneapolis Center
Wed 12:10:06 PM 42.4428 -98.9747 263° West 402 463 32,000  Level Minneapolis Center
Wed 12:11:08 PM 42.4264 -99.1272 262° West 407 468 32,000  Level Minneapolis Center
Wed 12:12:10 PM 42.4106 -99.2778 262° West 408 470 32,000  Level Minneapolis Center
Wed 12:13:12 PM 42.3947 -99.4308 262° West 408 470 32,000  Level Minneapolis Center
Wed 12:14:14 PM 42.3783 -99.5833 262° West 409 471 32,000  Level Minneapolis Center
Wed 12:15:16 PM 42.3583 -99.7669 262° West 411 473 32,000  Level Minneapolis Center
Wed 12:16:18 PM 42.3431 -99.9197 262° West 414 476 32,000  Level Minneapolis Center
Wed 12:17:20 PM 42.3258 -100.0733 261° West 413 475 32,000  Level Minneapolis Center
Wed 12:18:23 PM 42.3083 -100.2269 261° West 413 475 32,000  Level Minneapolis Center
Wed 12:19:25 PM 42.2914 -100.3792 261° West 413 475 32,000  Level Minneapolis Center
Wed 12:20:27 PM 42.2733 -100.5342 261° West 413 475 32,000  Level Minneapolis Center
Wed 12:21:29 PM 42.2511 -100.7200 261° West 414 476 32,000  Level Minneapolis Center
Wed 12:22:53 PM 42.2269 -100.9264 261° West 422 486 32,000  Level Denver Center
Wed 12:23:55 PM 42.2064 -101.0992 261° West 421 484 32,000  Level Denver Center
Wed 12:24:57 PM 42.1878 -101.2486 261° West 422 486 32,000  Level Denver Center
Wed 12:25:59 PM 42.1658 -101.4219 260° West 422 486 32,000  Level Denver Center
Wed 12:27:02 PM 42.1486 -101.5697 261° West 421 484 32,000  Level Denver Center
Wed 12:28:04 PM 42.1275 -101.7428 261° West 421 484 32,000  Level Denver Center
Wed 12:29:06 PM 42.1086 -101.8906 260° West 421 484 32,000  Level Denver Center
Wed 12:30:08 PM 42.0867 -102.0633 260° West 421 484 32,000  Level Denver Center
Wed 12:31:10 PM 42.0675 -102.2106 260° West 420 483 32,000  Level Denver Center
Wed 12:32:12 PM 42.0442 -102.3836 260° West 421 484 32,000  Level Denver Center
Wed 12:33:14 PM 42.0244 -102.5303 260° West 421 484 32,000  Level Denver Center
Wed 12:34:16 PM 42.0014 -102.7039 260° West 421 484 32,000  Level Denver Center
Wed 12:35:18 PM 41.9819 -102.8533 260° West 421 484 32,000  Level Denver Center
Wed 12:36:20 PM 41.9625 -103.0025 260° West 421 484 32,000  Level Denver Center
Wed 12:37:22 PM 41.9364 -103.1769 259° West 424 488 32,000  Level Denver Center
Wed 12:38:25 PM 41.9169 -103.3258 260° West 424 488 32,000  Level Denver Center
Wed 12:39:27 PM 41.8944 -103.5014 260° West 427 491 32,000  Level Denver Center
Wed 12:40:29 PM 41.8889 -103.6539 267° West 427 491 32,000  Level Denver Center
Wed 12:41:31 PM 41.8825 -103.8294 267° West 426 490 32,000  Level Denver Center
Wed 12:42:33 PM 41.8772 -103.9811 267° West 425 489 32,000  Level Denver Center
Wed 12:43:35 PM 41.8706 -104.1594 267° West 425 489 32,000  Level Denver Center
Wed 12:44:37 PM 41.8644 -104.3122 267° West 426 490 32,000  Level Denver Center
Wed 12:45:39 PM 41.8583 -104.4903 267° West 426 490 32,000  Level Denver Center
Wed 12:46:41 PM 41.8528 -104.6425 267° West 426 490 32,000  Level Denver Center
Wed 12:47:43 PM 41.8461 -104.7972 267° West 429 494 32,000 145 Level Denver Center
Wed 12:48:45 PM 41.8392 -104.9756 267° West 429 494 32,300 384 Climbing Denver Center
Wed 12:49:48 PM 41.8317 -105.1289 266° West 429 494 32,800 480 Climbing Denver Center
Wed 12:50:50 PM 41.8231 -105.3089 266° West 429 494 33,300 484 Climbing Denver Center
Wed 12:51:52 PM 41.8144 -105.4603 266° West 429 494 33,800 339 Climbing Denver Center
Wed 12:52:54 PM 41.8067 -105.6408 267° West 431 496 34,000 97 Climbing Denver Center
Wed 12:53:56 PM 41.7983 -105.7917 266° West 429 494 34,000  Level Denver Center
Wed 12:54:58 PM 41.7889 -105.9683 266° West 428 493 34,000  Level Denver Center
Wed 12:56:00 PM 41.7811 -106.1194 266° West 427 491 34,000  Level Denver Center
Wed 12:57:02 PM 41.7708 -106.2981 266° West 429 494 34,000  Level Denver Center
Wed 12:58:04 PM 41.7608 -106.4478 265° West 426 490 34,000  Level Denver Center
Wed 12:59:06 PM 41.7539 -106.6150 267° West 426 490 34,000  Level Denver Center
Wed 01:00:08 PM 41.7433 -106.7667 265° West 427 491 34,000  Level Denver Center
Wed 01:01:11 PM 41.6886 -106.9275 246° West 433 498 34,000  Level Denver Center
Wed 01:02:13 PM 41.6258 -107.0575 237° Southwest 434 499 34,000  Level Denver Center
Wed 01:03:15 PM 41.5528 -107.2069 237° Southwest 434 499 34,000  Level Denver Center
Wed 01:04:17 PM 41.4889 -107.3339 236° Southwest 433 498 34,000  Level Denver Center
Wed 01:05:19 PM 41.4164 -107.4800 237° Southwest 428 493 34,000  Level Denver Center
Wed 01:06:21 PM 41.3531 -107.6058 236° Southwest 428 493 34,000  Level Denver Center
Wed 01:07:23 PM 41.2792 -107.7536 236° Southwest 428 493 34,000  Level Denver Center
Wed 01:08:25 PM 41.2147 -107.8803 236° Southwest 429 494 34,000  Level Denver Center
Wed 01:09:27 PM 41.1400 -108.0269 236° Southwest 429 494 34,000  Level Denver Center
Wed 01:10:30 PM 41.0761 -108.1522 236° Southwest 429 494 34,000  Level Denver Center
Wed 01:11:32 PM 41.0017 -108.2986 236° Southwest 429 494 34,000  Level Denver Center
Wed 01:12:34 PM 40.9361 -108.4242 235° Southwest 429 494 34,000  Level Denver Center
Wed 01:13:36 PM 40.8606 -108.5683 235° Southwest 429 494 34,000  Level Denver Center
Wed 01:14:38 PM 40.7961 -108.6914 235° Southwest 427 491 34,000  Level Denver Center
Wed 01:15:40 PM 40.7311 -108.8150 235° Southwest 426 490 34,000  Level Denver Center
Wed 01:16:42 PM 40.6650 -108.9408 235° Southwest 424 488 34,000  Level Denver Center
Wed 01:17:44 PM 40.5864 -109.0869 235° Southwest 413 475 34,000  Level Denver Center
Wed 01:19:12 PM 40.4964 -109.2547 235° Southwest 406 467 34,000  Level Salt Lake Center
Wed 01:19:49 PM 40.4583 -109.3278 236° Southwest 402 463 34,000  Level Denver Center
Wed 01:20:51 PM 40.3953 -109.4442 235° Southwest 399 459 34,000  Level Denver Center
Wed 01:21:53 PM 40.3317 -109.5619 235° Southwest 399 459 34,000  Level Denver Center
Wed 01:22:55 PM 40.2539 -109.7058 235° Southwest 400 460 34,000  Level Denver Center
Wed 01:23:57 PM 40.1878 -109.8242 234° Southwest 402 463 34,000  Level Denver Center
Wed 01:24:59 PM 40.1225 -109.9442 235° Southwest 404 465 34,000  Level Denver Center
Wed 01:26:01 PM 40.0569 -110.0647 235° Southwest 407 468 34,000  Level Denver Center
Wed 01:27:03 PM 39.9914 -110.1825 234° Southwest 407 468 34,000  Level Denver Center
Wed 01:28:05 PM 39.9125 -110.3242 234° Southwest 407 468 34,000  Level Denver Center
Wed 01:29:07 PM 39.8461 -110.4439 234° Southwest 407 468 34,000  Level Denver Center
Wed 01:30:10 PM 39.7803 -110.5608 234° Southwest 406 467 34,000  Level Denver Center
Wed 01:31:12 PM 39.7136 -110.6797 234° Southwest 407 468 34,000  Level Denver Center
Wed 01:32:14 PM 39.6458 -110.7978 233° Southwest 407 468 34,000  Level Denver Center
Wed 01:33:16 PM 39.5794 -110.9169 234° Southwest 407 468 34,000  Level Denver Center
Wed 01:34:43 PM 39.4747 -111.1069 235° Southwest 407 468 34,000  Level Salt Lake Center
Wed 01:35:45 PM 39.4078 -111.2256 234° Southwest 407 468 34,000  Level Salt Lake Center
Wed 01:36:47 PM 39.3428 -111.3397 234° Southwest 408 470 34,000  Level Salt Lake Center
Wed 01:37:49 PM 39.2758 -111.4564 233° Southwest 408 470 34,000  Level Salt Lake Center
Wed 01:38:51 PM 39.1997 -111.5919 234° Southwest 408 470 34,000  Level Salt Lake Center
Wed 01:39:53 PM 39.1317 -111.7069 233° Southwest 408 470 34,000  Level Salt Lake Center
Wed 01:40:56 PM 39.0644 -111.8239 234° Southwest 408 470 34,000  Level Salt Lake Center
Wed 01:41:58 PM 38.9983 -111.9422 234° Southwest 408 470 34,000  Level Salt Lake Center
Wed 01:43:00 PM 38.9169 -112.0789 233° Southwest 406 467 34,000  Level Salt Lake Center
Wed 01:44:02 PM 38.8489 -112.1917 232° Southwest 404 465 34,000  Level Salt Lake Center
Wed 01:45:04 PM 38.7833 -112.3075 234° Southwest 404 465 34,000  Level Salt Lake Center
Wed 01:46:06 PM 38.7158 -112.4217 233° Southwest 403 464 34,000  Level Salt Lake Center
Wed 01:47:08 PM 38.6483 -112.5350 233° Southwest 403 464 34,000  Level Salt Lake Center
Wed 01:48:10 PM 38.5667 -112.6697 232° Southwest 403 464 34,000  Level Salt Lake Center
Wed 01:49:12 PM 38.4989 -112.7839 233° Southwest 403 464 34,000 -48 Level Salt Lake Center
Wed 01:50:14 PM 38.4314 -112.8989 233° Southwest 404 465 33,900 -290 Descending Salt Lake Center
Wed 01:51:16 PM 38.3617 -113.0094 231° Southwest 404 465 33,400 -484 Descending Salt Lake Center
Wed 01:52:18 PM 38.2589 -113.0778 208° Southwest 421 484 32,900 -484 Descending Salt Lake Center
Wed 01:53:20 PM 38.1531 -113.1408 205° Southwest 421 484 32,400 -435 Descending Salt Lake Center
Wed 01:54:22 PM 38.0250 -113.2192 206° Southwest 426 490 32,000 -194 Descending Salt Lake Center
Wed 01:55:24 PM 37.9181 -113.2861 206° Southwest 429 494 32,000  Level Salt Lake Center
Wed 01:56:27 PM 37.8100 -113.3503 205° Southwest 431 496 32,000  Level Salt Lake Center
Wed 01:57:29 PM 37.7025 -113.4147 205° Southwest 430 495 32,000  Level Salt Lake Center
Wed 01:58:31 PM 37.5728 -113.4922 205° Southwest 431 496 32,000  Level Salt Lake Center
Wed 01:59:33 PM 37.4658 -113.5558 205° Southwest 431 496 32,000  Level Salt Lake Center
Wed 02:00:35 PM 37.3600 -113.6186 205° Southwest 429 494 32,000 -286 Level Salt Lake Center
Wed 02:01:18 PM 37.2742 -113.6708 206° Southwest 430 495 31,500 -1,075 Descending Los Angeles Center
Wed 02:02:21 PM 37.1664 -113.7347 205° Southwest 430 495 30,100 -1,584 Descending Los Angeles Center
Wed 02:03:23 PM 37.0606 -113.7964 205° Southwest 426 490 28,200 -1,887 Descending Los Angeles Center
Wed 02:04:25 PM 36.9569 -113.8592 206° Southwest 420 483 26,200 -1,984 Descending Los Angeles Center
Wed 02:05:27 PM 36.8517 -113.9211 205° Southwest 411 473 24,100 -2,081 Descending Los Angeles Center
Wed 02:06:29 PM 36.7558 -113.9783 206° Southwest 404 465 21,900 -2,496 Descending Los Angeles Center
Wed 02:07:32 PM 36.6314 -114.0519 205° Southwest 406 467 18,900 -2,661 Descending Los Angeles Center
Wed 02:08:33 PM 36.5486 -114.1433 222° Southwest 408 470 16,400 -2,537 Descending Los Angeles Center
Wed 02:09:35 PM 36.4925 -114.2711 241° Southwest 402 463 13,700 -2,552 Descending Los Angeles Center
Wed 02:10:00 PM 36.4686 -114.3206 239° Southwest 392 451 12,700 -1,524 Descending Los Angeles Center
Wed 02:10:38 PM 36.4361 -114.3828 237° Southwest 387 445 12,100 -764 Descending Los Angeles Center
Wed 02:10:55 PM 36.4078 -114.4058 213° Southwest 362 417 12,000 -97 Descending Los Angeles Center
Wed 02:11:40 PM 36.3583 -114.4436 212° Southwest 337 388 12,000  Level Los Angeles Center
Wed 02:12:02 PM 36.3208 -114.4728 212° Southwest 303 349 12,000 -97 Level Los Angeles Center
Wed 02:12:42 PM 36.2850 -114.5011 213° Southwest 317 365 11,900 -806 Descending Los Angeles Center
Wed 02:13:09 PM 36.2436 -114.5339 213° Southwest 308 354 11,100 -1,355 Descending Los Angeles Center
Wed 02:13:44 PM 36.2139 -114.5611 216° Southwest 314 361 10,500 -1,869 Descending Los Angeles Center
Wed 02:14:10 PM 36.1811 -114.6031 226° Southwest 299 344 9,200 -2,032 Descending Los Angeles Center
Wed 02:14:46 PM 36.1433 -114.6472 223° Southwest 304 350 8,400 -1,065 Descending Los Angeles Center
Wed 02:15:12 PM 36.1197 -114.6769 225° Southwest 287 330 8,100 -387 Descending Los Angeles Center
Wed 02:15:48 PM 36.0881 -114.7122 222° Southwest 291 335 8,000 -98 Descending Los Angeles Center
Wed 02:16:13 PM 36.0725 -114.7381 233° Southwest 247 284 8,000 -381 Level Los Angeles Center
Wed 02:16:51 PM 36.0725 -114.7839 270° West 257 296 7,600 -885 Descending Los Angeles Center
Wed 02:17:14 PM 36.0725 -114.8156 270° West 211 243 7,100 -1,161 Descending Los Angeles Center
Wed 02:17:53 PM 36.0728 -114.8556 271° West 226 260 6,400 -1,279 Descending Los Angeles Center
Wed 02:18:15 PM 36.0725 -114.8847 269° West 200 230 5,800 -1,355 Descending Los Angeles Center
Wed 02:18:55 PM 36.0736 -114.9311 272° West 207 238 5,000 -1,180 Descending Los Angeles Center
Wed 02:19:16 PM 36.0731 -114.9564 268° West 191 220 4,600 -968 Descending Los Angeles Center
Wed 02:19:57 PM 36.0736 -114.9933 271° West 188 216 4,000 -968 Descending Los Angeles Center
Wed 02:20:18 PM 36.0739 -115.0200 271° West 188 216 3,600 -968 Descending Los Angeles Center
Wed 02:20:59 PM 36.0736 -115.0608 270° West 186 214 3,000 -873 Descending Los Angeles Center
Wed 02:21:13 PM 36.0728 -115.0736 265° West 158 182 2,800 -774 Descending Los Angeles Center
Wed 02:22:01 PM 36.0733 -115.1128 271° West 156 180 2,200 -750 Descending Los Angeles Center

Login

Don't have an account? Register now (free) for customized features, flight alerts, and more!